createdAt,value
2023-03-30T00:00:24.320Z,13.90
2023-03-30T00:03:10.663Z,13.80
2023-03-30T00:05:57.221Z,14.00
2023-03-30T00:08:43.199Z,14.00
2023-03-30T00:11:34.315Z,13.90
2023-03-30T00:14:22.738Z,13.90
2023-03-30T00:17:09.653Z,13.80
2023-03-30T00:19:55.440Z,13.80
2023-03-30T00:22:42.667Z,13.80
2023-03-30T00:25:28.399Z,13.90
2023-03-30T00:28:14.575Z,13.90
2023-03-30T00:31:00.587Z,13.90
2023-03-30T00:33:47.733Z,13.90
2023-03-30T00:36:37.253Z,14.10
2023-03-30T00:39:23.297Z,14.10
2023-03-30T00:42:15.642Z,14.10
2023-03-30T00:45:27.841Z,14.20
2023-03-30T00:48:22.815Z,14.00
2023-03-30T00:51:11.362Z,14.00
2023-03-30T00:54:03.277Z,14.20
2023-03-30T00:56:48.947Z,14.10
2023-03-30T00:59:34.812Z,13.80
2023-03-30T01:02:21.724Z,13.60
2023-03-30T01:05:08.737Z,13.60
2023-03-30T01:07:58.066Z,13.80
2023-03-30T01:10:45.036Z,13.80
2023-03-30T01:13:34.342Z,14.00
2023-03-30T01:16:42.079Z,14.00
2023-03-30T01:20:09.260Z,13.90
2023-03-30T01:23:28.767Z,14.10
2023-03-30T01:26:33.103Z,14.30
2023-03-30T01:29:46.943Z,14.40
2023-03-30T01:33:00.170Z,14.40
2023-03-30T01:35:54.652Z,14.50
2023-03-30T01:39:17.897Z,14.30
2023-03-30T01:42:07.300Z,13.90
2023-03-30T01:45:26.474Z,13.80
2023-03-30T01:48:19.608Z,13.90
2023-03-30T01:51:12.624Z,14.30
2023-03-30T01:54:17.353Z,14.30
2023-03-30T01:57:23.581Z,14.20
2023-03-30T02:00:18.119Z,14.30
2023-03-30T02:03:19.154Z,14.20
2023-03-30T02:06:13.931Z,13.90
2023-03-30T02:09:01.005Z,13.70
2023-03-30T02:11:51.325Z,13.60
2023-03-30T02:14:39.043Z,13.40
2023-03-30T02:17:28.949Z,13.20
2023-03-30T02:20:17.687Z,13.10
2023-03-30T02:23:06.970Z,13.20
2023-03-30T02:25:53.601Z,13.10
2023-03-30T02:28:40.085Z,13.20
2023-03-30T02:31:27.717Z,13.20
2023-03-30T02:34:43.628Z,13.20
2023-03-30T02:37:30.476Z,13.20
2023-03-30T02:40:46.822Z,13.20
2023-03-30T02:44:05.594Z,12.90
2023-03-30T02:47:02.466Z,13.20
2023-03-30T02:50:03.256Z,13.10
2023-03-30T02:53:07.869Z,13.00
2023-03-30T02:56:11.712Z,13.10
2023-03-30T02:59:30.669Z,13.10
2023-03-30T03:02:22.260Z,12.80
2023-03-30T03:05:16.732Z,13.20
2023-03-30T03:08:18.969Z,12.90
2023-03-30T03:11:08.129Z,12.80
2023-03-30T03:13:53.902Z,13.20
2023-03-30T03:16:39.481Z,13.10
2023-03-30T03:19:32.136Z,13.20
2023-03-30T03:22:20.467Z,12.70
2023-03-30T03:25:06.831Z,12.80
2023-03-30T03:28:05.402Z,12.90
2023-03-30T03:31:06.512Z,13.20
2023-03-30T03:33:53.654Z,13.30
2023-03-30T03:36:45.171Z,13.40
2023-03-30T03:39:32.011Z,13.30
2023-03-30T03:42:24.504Z,12.80
2023-03-30T03:45:27.043Z,12.30
2023-03-30T03:48:18.135Z,12.70
2023-03-30T03:51:09.380Z,12.80
2023-03-30T03:53:55.884Z,12.90
2023-03-30T03:56:42.438Z,13.00
2023-03-30T03:59:28.576Z,12.90
2023-03-30T04:02:14.285Z,12.80
2023-03-30T04:05:00.293Z,12.90
2023-03-30T04:07:46.877Z,12.90
2023-03-30T04:10:33.516Z,12.80
2023-03-30T04:13:40.451Z,12.90
2023-03-30T04:16:49.313Z,12.90
2023-03-30T04:19:55.549Z,12.90
2023-03-30T04:23:16.412Z,12.80
2023-03-30T04:26:25.371Z,12.90
2023-03-30T04:29:33.443Z,12.90
2023-03-30T04:32:42.548Z,13.00
2023-03-30T04:35:50.351Z,12.90
2023-03-30T04:39:00.959Z,12.80
2023-03-30T04:42:14.135Z,12.60
2023-03-30T04:45:13.511Z,12.50
2023-03-30T04:48:08.946Z,12.60
2023-03-30T04:51:13.478Z,12.90
2023-03-30T04:54:17.729Z,12.90
2023-03-30T04:57:23.811Z,12.90
2023-03-30T05:00:29.518Z,12.70
2023-03-30T05:03:44.592Z,12.80
2023-03-30T05:06:49.872Z,12.80
2023-03-30T05:10:04.095Z,12.70
2023-03-30T05:13:10.018Z,12.40
2023-03-30T05:16:12.108Z,12.50
2023-03-30T05:19:27.279Z,12.60
2023-03-30T05:22:31.524Z,12.70
2023-03-30T05:25:28.549Z,12.80
2023-03-30T05:28:43.589Z,12.70
2023-03-30T05:31:48.138Z,12.50
2023-03-30T05:34:51.486Z,12.50
2023-03-30T05:37:56.706Z,12.70
2023-03-30T05:41:03.294Z,12.50
2023-03-30T05:44:15.965Z,12.60
2023-03-30T05:47:25.814Z,12.90
2023-03-30T05:50:50.090Z,13.20
2023-03-30T05:53:46.318Z,13.30
2023-03-30T05:56:43.994Z,13.40
2023-03-30T05:59:56.574Z,13.20
2023-03-30T06:03:14.317Z,12.90
2023-03-30T06:06:00.888Z,13.10
2023-03-30T06:08:47.585Z,13.10
2023-03-30T06:11:37.438Z,13.20
2023-03-30T06:14:32.958Z,13.20
2023-03-30T06:17:39.089Z,13.40
2023-03-30T06:20:26.658Z,13.20
2023-03-30T06:23:12.996Z,13.50
2023-03-30T06:26:01.574Z,13.80
2023-03-30T06:28:53.640Z,14.00
2023-03-30T06:31:40.355Z,14.00
2023-03-30T06:34:49.985Z,14.10
2023-03-30T06:37:38.619Z,14.30
2023-03-30T06:40:25.136Z,14.30
2023-03-30T06:43:24.397Z,14.50
2023-03-30T06:46:30.029Z,14.50
2023-03-30T06:49:17.494Z,14.90
2023-03-30T06:52:08.745Z,15.10
2023-03-30T06:54:57.282Z,15.20
2023-03-30T06:57:45.968Z,15.20
2023-03-30T07:00:32.493Z,15.50
2023-03-30T07:03:57.060Z,15.70
2023-03-30T07:07:03.845Z,15.80
2023-03-30T07:09:52.605Z,16.10
2023-03-30T07:12:45.705Z,16.50
2023-03-30T07:15:37.093Z,16.10
2023-03-30T07:18:23.537Z,16.20
2023-03-30T07:21:10.562Z,16.80
2023-03-30T07:24:03.670Z,17.40
2023-03-30T07:26:55.624Z,17.70
2023-03-30T07:29:45.988Z,16.80
2023-03-30T07:32:33.641Z,16.30
2023-03-30T07:35:20.174Z,16.20
2023-03-30T07:38:07.131Z,16.10
2023-03-30T07:40:57.477Z,15.80
2023-03-30T07:43:45.430Z,15.60
2023-03-30T07:46:31.574Z,15.80
2023-03-30T07:49:18.601Z,16.30
2023-03-30T07:52:04.551Z,16.50
2023-03-30T07:55:08.696Z,16.60
2023-03-30T07:58:05.073Z,17.50
2023-03-30T08:00:54.217Z,16.60
2023-03-30T08:03:48.656Z,16.50
2023-03-30T08:06:37.851Z,17.20
2023-03-30T08:09:28.651Z,17.20
2023-03-30T08:12:15.361Z,17.30
2023-03-30T08:15:05.957Z,17.60
2023-03-30T08:17:53.117Z,17.30
2023-03-30T08:20:41.179Z,16.90
2023-03-30T08:23:27.366Z,17.30
2023-03-30T08:26:13.933Z,17.50
2023-03-30T08:29:00.555Z,18.30
2023-03-30T08:31:47.529Z,18.20
2023-03-30T08:34:36.076Z,19.00
2023-03-30T08:37:24.029Z,20.70
2023-03-30T08:40:19.034Z,21.60
2023-03-30T08:43:22.383Z,20.80
2023-03-30T08:46:15.565Z,19.80
2023-03-30T08:49:08.433Z,19.60
2023-03-30T08:51:56.452Z,19.10
2023-03-30T08:54:43.503Z,18.70
2023-03-30T08:57:56.203Z,18.80
2023-03-30T09:00:47.499Z,21.00
2023-03-30T09:04:09.229Z,22.10
2023-03-30T09:07:03.374Z,22.90
2023-03-30T09:09:53.746Z,23.00
2023-03-30T09:12:52.032Z,22.10
2023-03-30T09:15:52.848Z,20.40
2023-03-30T09:18:41.757Z,19.10
2023-03-30T09:21:32.809Z,19.40
2023-03-30T09:24:25.878Z,19.40
2023-03-30T09:27:27.355Z,19.90
2023-03-30T09:30:20.922Z,21.80
2023-03-30T09:33:35.798Z,23.40
2023-03-30T09:36:40.083Z,23.50
2023-03-30T09:39:28.217Z,24.30
2023-03-30T09:42:38.252Z,24.30
2023-03-30T09:45:33.358Z,24.20
2023-03-30T09:48:20.121Z,24.90
2023-03-30T09:51:18.203Z,24.50
2023-03-30T09:54:06.715Z,24.30
2023-03-30T09:56:55.302Z,24.80
2023-03-30T09:59:45.883Z,23.30
2023-03-30T10:02:34.084Z,22.60
2023-03-30T10:05:22.040Z,22.60
2023-03-30T10:08:23.673Z,22.20
2023-03-30T10:11:11.811Z,22.50
2023-03-30T10:13:59.844Z,23.50
2023-03-30T10:16:47.058Z,24.50
2023-03-30T10:19:39.575Z,25.20
2023-03-30T10:22:32.100Z,25.30
2023-03-30T10:25:24.608Z,25.30
2023-03-30T10:28:33.714Z,25.60
2023-03-30T10:31:20.989Z,27.10
2023-03-30T10:34:19.232Z,27.70
2023-03-30T10:37:20.227Z,27.20
2023-03-30T10:40:20.066Z,26.90
2023-03-30T10:43:14.593Z,28.20
2023-03-30T10:46:19.494Z,27.80
2023-03-30T10:49:28.424Z,27.90
2023-03-30T10:52:35.712Z,27.60
2023-03-30T10:55:39.193Z,28.50
2023-03-30T10:58:33.973Z,28.10
2023-03-30T11:01:42.540Z,28.50
2023-03-30T11:04:55.510Z,28.00
2023-03-30T11:07:48.210Z,29.10
2023-03-30T11:10:40.205Z,28.30
2023-03-30T11:13:35.144Z,27.40
2023-03-30T11:16:27.160Z,25.70
2023-03-30T11:19:37.026Z,24.90
2023-03-30T11:22:47.054Z,26.70
2023-03-30T11:25:57.679Z,27.20
2023-03-30T11:28:56.530Z,26.80
2023-03-30T11:32:14.946Z,26.50
2023-03-30T11:35:14.798Z,26.30
2023-03-30T11:38:11.987Z,25.10
2023-03-30T11:41:24.860Z,25.80
2023-03-30T11:44:19.838Z,26.60
2023-03-30T11:47:33.188Z,26.70
2023-03-30T11:50:36.292Z,27.20
2023-03-30T11:53:38.353Z,27.30
2023-03-30T11:57:24.946Z,27.60
2023-03-30T12:00:43.776Z,29.00
2023-03-30T12:07:06.122Z,30.50
2023-03-30T12:13:00.216Z,30.00
2023-03-30T12:16:48.212Z,29.10
2023-03-30T12:19:58.496Z,28.30
2023-03-30T12:23:03.233Z,27.50
2023-03-30T12:26:08.602Z,26.50
2023-03-30T12:29:26.146Z,25.40
2023-03-30T12:32:03.986Z,24.20
2023-03-30T12:34:53.050Z,23.60
2023-03-30T12:37:49.728Z,23.40
2023-03-30T12:40:38.617Z,23.40
2023-03-30T12:43:39.786Z,23.20
2023-03-30T12:46:39.347Z,23.10
2023-03-30T12:49:41.965Z,22.90
2023-03-30T12:53:04.232Z,22.50
2023-03-30T12:56:17.635Z,22.20
2023-03-30T12:59:31.423Z,20.90
2023-03-30T13:02:54.754Z,20.90
2023-03-30T13:05:55.183Z,20.20
2023-03-30T13:08:43.284Z,20.30
2023-03-30T13:11:54.921Z,20.20
2023-03-30T13:18:28.995Z,20.40
2023-03-30T13:21:22.733Z,20.60
2023-03-30T13:24:31.111Z,20.60
2023-03-30T13:27:29.949Z,20.50
2023-03-30T13:30:18.415Z,20.50
2023-03-30T13:33:16.057Z,20.50
2023-03-30T13:36:08.320Z,20.30
2023-03-30T13:39:08.971Z,19.70
2023-03-30T13:42:02.394Z,19.90
2023-03-30T13:45:08.489Z,20.30
2023-03-30T13:48:02.760Z,20.30
2023-03-30T13:51:03.952Z,19.90
2023-03-30T13:54:17.809Z,19.90
2023-03-30T13:57:12.028Z,20.20
2023-03-30T14:00:07.163Z,20.40
2023-03-30T14:02:56.658Z,20.00
2023-03-30T14:05:53.539Z,20.20
2023-03-30T14:08:42.483Z,20.50
2023-03-30T14:11:55.532Z,20.60
2023-03-30T14:21:18.313Z,19.90
2023-03-30T14:24:05.568Z,19.50
2023-03-30T14:26:51.729Z,19.50
2023-03-30T14:29:47.208Z,19.50
2023-03-30T14:32:33.549Z,19.80
2023-03-30T14:35:20.953Z,19.70
2023-03-30T14:38:16.509Z,19.70
2023-03-30T14:41:07.196Z,19.70
2023-03-30T14:44:03.462Z,19.80
2023-03-30T14:46:52.403Z,19.50
2023-03-30T14:49:41.489Z,19.10
2023-03-30T14:52:33.091Z,19.40
2023-03-30T14:55:25.569Z,17.80
2023-03-30T15:01:26.773Z,19.60
2023-03-30T15:04:19.140Z,19.20
2023-03-30T15:07:06.588Z,19.10
2023-03-30T15:09:59.213Z,19.00
2023-03-30T15:12:50.748Z,19.00
2023-03-30T15:15:40.847Z,19.00
2023-03-30T15:18:31.023Z,18.60
2023-03-30T15:21:21.740Z,18.80
2023-03-30T15:24:15.088Z,19.10
2023-03-30T15:27:07.932Z,19.50
2023-03-30T15:32:58.771Z,18.70
2023-03-30T15:35:49.965Z,19.70
2023-03-30T15:38:48.918Z,19.40
2023-03-30T15:41:51.197Z,19.30
2023-03-30T15:44:43.633Z,19.00
2023-03-30T15:47:32.460Z,18.80
2023-03-30T15:50:23.975Z,19.00
2023-03-30T15:53:19.043Z,18.90
2023-03-30T15:56:08.371Z,19.10
2023-03-30T15:58:55.587Z,18.90
2023-03-30T16:04:54.462Z,18.60
2023-03-30T16:07:43.659Z,18.60
2023-03-30T16:13:39.313Z,18.80
2023-03-30T16:16:32.425Z,18.90
2023-03-30T16:23:23.456Z,19.00
2023-03-30T16:26:13.137Z,18.90
2023-03-30T16:28:59.102Z,18.90
2023-03-30T16:31:45.268Z,18.30
2023-03-30T16:34:31.310Z,18.00
2023-03-30T16:37:17.024Z,17.80
2023-03-30T16:40:10.486Z,18.20
2023-03-30T16:42:57.007Z,18.40
2023-03-30T16:45:42.855Z,18.50
2023-03-30T16:48:29.011Z,18.60
2023-03-30T16:51:16.274Z,18.70
2023-03-30T16:54:03.089Z,18.80
2023-03-30T16:56:49.072Z,19.00
2023-03-30T16:59:35.083Z,18.70
2023-03-30T17:02:20.679Z,18.30
2023-03-30T17:05:07.123Z,18.40
2023-03-30T17:07:56.307Z,18.60
2023-03-30T17:10:42.558Z,18.50
2023-03-30T17:13:28.921Z,18.60
2023-03-30T17:16:16.204Z,17.90
2023-03-30T17:19:02.911Z,17.50
2023-03-30T17:21:49.057Z,17.30
2023-03-30T17:24:35.269Z,17.30
2023-03-30T17:27:21.613Z,17.40
2023-03-30T17:30:20.635Z,17.40
2023-03-30T17:33:11.027Z,17.70
2023-03-30T17:36:01.196Z,17.90
2023-03-30T17:38:48.215Z,17.80
2023-03-30T17:41:35.478Z,17.80
2023-03-30T17:44:21.922Z,17.90
2023-03-30T17:47:09.291Z,17.80
2023-03-30T17:49:55.512Z,18.00
2023-03-30T17:52:41.713Z,18.20
2023-03-30T17:55:31.054Z,18.10
2023-03-30T17:58:33.361Z,17.80
2023-03-30T18:01:19.792Z,18.00
2023-03-30T18:04:06.235Z,17.70
2023-03-30T18:06:52.556Z,17.60
2023-03-30T18:09:39.955Z,17.80
2023-03-30T18:12:26.194Z,17.80
2023-03-30T18:15:13.209Z,17.80
2023-03-30T18:18:00.512Z,17.80
2023-03-30T18:20:46.920Z,17.70
2023-03-30T18:23:34.951Z,17.60
2023-03-30T18:26:21.378Z,17.40
2023-03-30T18:29:22.867Z,17.40
2023-03-30T18:32:08.916Z,17.40
2023-03-30T18:34:55.372Z,17.10
2023-03-30T18:37:41.189Z,17.20
2023-03-30T18:40:37.390Z,17.10
2023-03-30T18:43:23.386Z,16.80
2023-03-30T18:46:12.285Z,16.80
2023-03-30T18:48:58.333Z,16.90
2023-03-30T18:51:45.168Z,16.70
2023-03-30T18:54:31.949Z,16.90
2023-03-30T18:57:17.798Z,17.00
2023-03-30T19:00:26.530Z,17.00
2023-03-30T19:03:14.469Z,16.80
2023-03-30T19:06:01.090Z,16.30
2023-03-30T19:08:47.682Z,16.30
2023-03-30T19:11:34.217Z,16.30
2023-03-30T19:14:20.230Z,16.40
2023-03-30T19:17:06.100Z,16.60
2023-03-30T19:19:51.989Z,16.70
2023-03-30T19:22:38.161Z,16.70
2023-03-30T19:25:26.004Z,16.50
2023-03-30T19:28:13.324Z,16.70
2023-03-30T19:31:13.410Z,16.80
2023-03-30T19:33:59.918Z,16.50
2023-03-30T19:36:46.094Z,16.40
2023-03-30T19:39:32.488Z,16.60
2023-03-30T19:42:18.875Z,16.40
2023-03-30T19:45:05.788Z,16.30
2023-03-30T19:47:52.230Z,16.50
2023-03-30T19:50:40.756Z,16.70
2023-03-30T19:53:26.618Z,16.70
2023-03-30T19:56:13.058Z,16.30
2023-03-30T19:58:59.208Z,16.50
2023-03-30T20:01:45.939Z,16.60
2023-03-30T20:04:31.941Z,16.40
2023-03-30T20:07:18.090Z,16.40
2023-03-30T20:10:06.230Z,16.40
2023-03-30T20:12:53.192Z,16.40
2023-03-30T20:15:39.371Z,16.20
2023-03-30T20:18:25.767Z,16.20
2023-03-30T20:21:11.631Z,16.30
2023-03-30T20:23:59.474Z,16.40
2023-03-30T20:26:45.252Z,16.40
2023-03-30T20:29:31.434Z,16.50
2023-03-30T20:32:17.879Z,16.40
2023-03-30T20:35:05.341Z,16.50
2023-03-30T20:37:51.560Z,16.40
2023-03-30T20:40:37.353Z,16.30
2023-03-30T20:43:26.554Z,16.30
2023-03-30T20:46:14.425Z,16.10
2023-03-30T20:49:02.151Z,16.10
2023-03-30T20:51:50.855Z,16.10
2023-03-30T20:54:38.002Z,16.10
2023-03-30T20:57:24.431Z,16.10
2023-03-30T21:00:12.692Z,16.10
2023-03-30T21:02:58.662Z,16.10
2023-03-30T21:05:45.078Z,15.50
2023-03-30T21:08:32.117Z,15.10
2023-03-30T21:11:18.114Z,15.40
2023-03-30T21:14:03.582Z,15.50
2023-03-30T21:16:50.178Z,15.60
2023-03-30T21:19:35.895Z,15.10
2023-03-30T21:22:22.257Z,15.10
2023-03-30T21:25:08.402Z,15.00
2023-03-30T21:27:54.938Z,15.20
2023-03-30T21:30:41.509Z,15.20
2023-03-30T21:33:29.117Z,15.30
2023-03-30T21:36:15.177Z,15.50
2023-03-30T21:39:01.554Z,15.50
2023-03-30T21:41:47.604Z,15.50
2023-03-30T21:44:35.079Z,15.50
2023-03-30T21:47:20.998Z,15.60
2023-03-30T21:50:07.374Z,15.60
2023-03-30T21:52:58.464Z,15.50
2023-03-30T21:55:48.224Z,14.80
2023-03-30T21:58:34.614Z,14.20
2023-03-30T22:01:25.778Z,13.80
2023-03-30T22:04:11.671Z,14.20
2023-03-30T22:06:57.714Z,14.70
2023-03-30T22:09:43.784Z,15.00
2023-03-30T22:12:31.409Z,15.00
2023-03-30T22:15:17.504Z,15.20
2023-03-30T22:18:06.803Z,15.20
2023-03-30T22:20:52.999Z,15.10
2023-03-30T22:23:38.939Z,15.10
2023-03-30T22:26:25.170Z,14.80
2023-03-30T22:29:12.654Z,14.50
2023-03-30T22:31:58.804Z,14.50
2023-03-30T22:34:45.052Z,14.60
2023-03-30T22:37:31.419Z,14.60
2023-03-30T22:40:17.593Z,14.50
2023-03-30T22:43:04.072Z,14.90
2023-03-30T22:45:50.413Z,15.20
2023-03-30T22:48:36.134Z,15.00
2023-03-30T22:51:28.472Z,15.10
2023-03-30T22:54:14.278Z,15.30
2023-03-30T22:57:00.878Z,15.10
2023-03-30T22:59:46.824Z,14.80
2023-03-30T23:02:32.843Z,14.60
2023-03-30T23:05:21.423Z,14.60
2023-03-30T23:08:07.506Z,14.60
2023-03-30T23:10:56.313Z,14.80
2023-03-30T23:13:42.583Z,14.80
2023-03-30T23:16:29.125Z,15.00
2023-03-30T23:19:15.323Z,14.80
2023-03-30T23:22:01.429Z,15.20
2023-03-30T23:24:47.168Z,15.40
2023-03-30T23:27:37.112Z,15.30
2023-03-30T23:30:23.292Z,15.50
2023-03-30T23:33:08.926Z,15.50
2023-03-30T23:35:54.473Z,15.20
2023-03-30T23:38:40.519Z,15.00
2023-03-30T23:41:26.394Z,14.40
2023-03-30T23:44:12.632Z,14.40
2023-03-30T23:46:58.898Z,14.60
2023-03-30T23:49:45.759Z,14.50
2023-03-30T23:52:32.434Z,13.10
2023-03-30T23:55:18.716Z,14.30
2023-03-30T23:58:06.259Z,14.50
